createdAt,value
2023-02-13T00:00:17.083Z,5.03
2023-02-13T00:05:46.915Z,5.05
2023-02-13T00:10:57.114Z,5.06
2023-02-13T00:16:09.410Z,5.06
2023-02-13T00:21:19.440Z,5.06
2023-02-13T00:26:29.349Z,5.04
2023-02-13T00:31:39.219Z,5.06
2023-02-13T00:36:49.244Z,5.07
2023-02-13T00:41:58.972Z,5.08
2023-02-13T00:47:08.594Z,5.09
2023-02-13T00:52:18.196Z,5.08
2023-02-13T00:57:28.382Z,5.05
2023-02-13T01:02:38.170Z,5.06
2023-02-13T01:07:48.018Z,5.07
2023-02-13T01:12:57.871Z,5.07
2023-02-13T01:18:08.082Z,5.09
2023-02-13T01:23:18.070Z,5.09
2023-02-13T01:28:28.015Z,5.08
2023-02-13T01:33:38.104Z,5.07
2023-02-13T01:38:48.169Z,5.07
2023-02-13T01:44:00.840Z,5.06
2023-02-13T01:49:19.829Z,5.07
2023-02-13T01:54:35.693Z,5.07
2023-02-13T02:00:01.262Z,5.07
2023-02-13T02:05:13.007Z,5.06
2023-02-13T02:10:24.120Z,5.07
2023-02-13T02:15:34.132Z,5.07
2023-02-13T02:21:33.010Z,5.06
2023-02-13T02:27:35.200Z,5.04
2023-02-13T02:33:11.136Z,5.03
2023-02-13T02:38:49.989Z,5.01
2023-02-13T02:44:15.860Z,4.99
2023-02-13T02:49:43.750Z,4.99
2023-02-13T02:55:10.713Z,4.97
2023-02-13T03:00:43.193Z,4.98
2023-02-13T03:06:14.574Z,4.98
2023-02-13T03:11:41.948Z,4.99
2023-02-13T03:17:10.348Z,5.00
2023-02-13T03:22:38.640Z,4.99
2023-02-13T03:28:14.948Z,4.99
2023-02-13T03:33:39.440Z,4.98
2023-02-13T03:38:59.374Z,4.98
2023-02-13T03:44:19.964Z,4.97
2023-02-13T03:49:54.440Z,4.97
2023-02-13T03:55:28.225Z,4.98
2023-02-13T04:00:46.516Z,4.99
2023-02-13T04:06:09.003Z,5.03
2023-02-13T04:11:25.748Z,5.04
2023-02-13T04:16:41.747Z,5.07
2023-02-13T04:22:00.669Z,5.09
2023-02-13T04:27:12.131Z,5.11
2023-02-13T04:32:21.838Z,5.13
2023-02-13T04:37:31.836Z,5.15
2023-02-13T04:42:43.301Z,5.19
2023-02-13T04:47:58.183Z,5.22
2023-02-13T04:53:08.251Z,5.25
2023-02-13T04:58:17.995Z,5.27
2023-02-13T05:03:27.714Z,5.27
2023-02-13T05:08:38.354Z,5.24
2023-02-13T05:13:51.137Z,5.24
2023-02-13T05:19:01.474Z,5.21
2023-02-13T05:24:11.866Z,5.22
2023-02-13T05:29:23.059Z,5.20
2023-02-13T05:34:33.536Z,5.22
2023-02-13T05:39:43.182Z,5.23
2023-02-13T05:44:52.995Z,5.24
2023-02-13T05:50:02.651Z,5.27
2023-02-13T05:55:13.429Z,5.28
2023-02-13T06:00:25.854Z,5.27
2023-02-13T06:05:35.749Z,5.27
2023-02-13T06:10:49.367Z,5.27
2023-02-13T06:15:59.398Z,5.24
2023-02-13T06:21:09.644Z,5.22
2023-02-13T06:26:19.420Z,5.22
2023-02-13T06:31:29.505Z,5.20
2023-02-13T06:36:39.274Z,5.21
2023-02-13T06:41:48.921Z,5.24
2023-02-13T06:46:58.636Z,5.29
2023-02-13T06:52:08.637Z,5.30
2023-02-13T06:57:18.979Z,5.29
2023-02-13T07:02:28.683Z,5.30
2023-02-13T07:07:40.794Z,5.31
2023-02-13T07:13:03.655Z,5.34
2023-02-13T07:18:14.843Z,5.36
2023-02-13T07:23:24.628Z,5.38
2023-02-13T07:28:34.674Z,5.41
2023-02-13T07:33:44.361Z,5.46
2023-02-13T07:38:54.071Z,5.54
2023-02-13T07:44:03.931Z,5.59
2023-02-13T07:49:13.812Z,5.62
2023-02-13T07:54:23.849Z,5.64
2023-02-13T07:59:33.859Z,5.64
2023-02-13T08:04:46.662Z,5.66
2023-02-13T08:10:13.820Z,5.73
2023-02-13T08:15:24.176Z,5.78
2023-02-13T08:20:34.404Z,5.82
2023-02-13T08:25:44.495Z,5.91
2023-02-13T08:30:54.506Z,6.02
2023-02-13T08:36:06.832Z,6.11
2023-02-13T08:46:33.021Z,6.09
2023-02-13T08:51:42.779Z,6.09
2023-02-13T08:56:52.840Z,6.11
2023-02-13T09:02:03.662Z,6.16
2023-02-13T09:07:13.868Z,6.21
2023-02-13T09:12:23.645Z,6.30
2023-02-13T09:17:33.231Z,6.39
2023-02-13T09:22:42.988Z,6.45
2023-02-13T09:27:52.777Z,6.50
2023-02-13T09:33:02.574Z,6.63
2023-02-13T09:38:12.319Z,6.75
2023-02-13T09:43:29.792Z,6.81
2023-02-13T09:48:45.691Z,6.85
2023-02-13T09:54:00.910Z,6.90
2023-02-13T09:59:28.287Z,6.99
2023-02-13T10:04:54.330Z,7.04
2023-02-13T10:10:18.473Z,7.08
2023-02-13T10:15:42.114Z,7.11
2023-02-13T10:20:57.631Z,7.12
2023-02-13T10:26:14.324Z,7.16
2023-02-13T10:31:27.681Z,7.20
2023-02-13T10:36:42.605Z,7.26
2023-02-13T10:42:04.228Z,7.36
2023-02-13T10:47:34.465Z,7.34
2023-02-13T10:52:58.055Z,7.26
2023-02-13T10:58:20.204Z,7.28
2023-02-13T11:03:32.556Z,7.45
2023-02-13T11:08:48.024Z,7.55
2023-02-13T11:14:15.455Z,7.64
2023-02-13T11:19:31.297Z,7.71
2023-02-13T11:24:53.913Z,7.90
2023-02-13T11:30:07.368Z,8.06
2023-02-13T11:35:40.691Z,8.07
2023-02-13T11:40:54.765Z,7.98
2023-02-13T11:46:17.262Z,7.92
2023-02-13T11:51:42.870Z,7.85
2023-02-13T11:57:06.368Z,7.83
2023-02-13T12:02:24.838Z,7.80
2023-02-13T12:07:36.486Z,7.69
2023-02-13T12:12:54.908Z,7.64
2023-02-13T12:18:21.168Z,7.66
2023-02-13T12:23:47.196Z,7.68
2023-02-13T12:29:49.100Z,7.75
2023-02-13T12:35:38.528Z,7.75
2023-02-13T12:41:25.420Z,7.83
2023-02-13T12:46:45.154Z,7.93
2023-02-13T12:52:16.383Z,7.96
2023-02-13T12:57:44.195Z,7.98
2023-02-13T13:03:22.191Z,8.05
2023-02-13T13:08:58.179Z,8.04
2023-02-13T13:14:20.506Z,7.99
2023-02-13T13:19:47.288Z,8.04
2023-02-13T13:25:12.623Z,8.05
2023-02-13T13:30:28.790Z,8.06
2023-02-13T13:35:44.619Z,8.02
2023-02-13T13:41:00.650Z,7.94
2023-02-13T13:46:21.503Z,7.90
2023-02-13T13:51:32.180Z,7.82
2023-02-13T13:57:12.605Z,7.72
2023-02-13T14:02:47.402Z,7.67
2023-02-13T14:08:00.168Z,7.58
2023-02-13T14:13:10.206Z,7.50
2023-02-13T14:18:28.125Z,7.45
2023-02-13T14:23:50.497Z,7.39
2023-02-13T14:29:28.888Z,7.39
2023-02-13T14:34:41.184Z,7.40
2023-02-13T14:40:32.576Z,7.39
2023-02-13T14:45:55.178Z,7.39
2023-02-13T14:51:06.858Z,7.36
2023-02-13T14:56:23.667Z,7.36
2023-02-13T15:01:38.992Z,7.34
2023-02-13T15:06:50.748Z,7.30
2023-02-13T15:12:00.665Z,7.27
2023-02-13T15:17:20.081Z,7.26
2023-02-13T15:22:38.552Z,7.25
2023-02-13T15:27:54.217Z,7.21
2023-02-13T15:33:17.827Z,7.15
2023-02-13T15:38:31.865Z,7.11
2023-02-13T15:43:46.188Z,7.09
2023-02-13T15:48:57.094Z,7.07
2023-02-13T15:54:09.701Z,6.99
2023-02-13T15:59:22.355Z,6.96
2023-02-13T16:04:33.917Z,6.94
2023-02-13T16:09:43.810Z,6.93
2023-02-13T16:15:00.371Z,6.93
2023-02-13T16:20:22.765Z,6.91
2023-02-13T16:25:36.919Z,6.90
2023-02-13T16:30:53.030Z,6.87
2023-02-13T16:36:20.202Z,6.89
2023-02-13T16:41:37.159Z,6.92
2023-02-13T16:46:58.282Z,6.92
2023-02-13T16:52:23.682Z,6.90
2023-02-13T16:57:36.207Z,6.85
2023-02-13T17:02:47.331Z,6.83
2023-02-13T17:07:59.726Z,6.80
2023-02-13T17:13:20.321Z,6.80
2023-02-13T17:18:30.185Z,6.79
2023-02-13T17:23:40.670Z,6.75
2023-02-13T17:28:50.399Z,6.72
2023-02-13T17:34:00.276Z,6.70
2023-02-13T17:39:10.211Z,6.66
2023-02-13T17:44:20.285Z,6.62
2023-02-13T17:49:30.104Z,6.57
2023-02-13T17:54:39.772Z,6.52
2023-02-13T17:59:50.822Z,6.46
2023-02-13T18:05:00.688Z,6.44
2023-02-13T18:10:15.758Z,6.40
2023-02-13T18:15:26.276Z,6.37
2023-02-13T18:20:37.534Z,6.34
2023-02-13T18:25:47.454Z,6.33
2023-02-13T18:30:57.886Z,6.34
2023-02-13T18:36:09.132Z,6.36
2023-02-13T18:41:22.042Z,6.36
2023-02-13T18:46:32.369Z,6.36
2023-02-13T18:51:44.771Z,6.33
2023-02-13T18:56:54.610Z,6.32
2023-02-13T19:02:04.961Z,6.32
2023-02-13T19:07:14.731Z,6.30
2023-02-13T19:12:24.369Z,6.28
2023-02-13T19:17:35.515Z,6.28
2023-02-13T19:22:45.358Z,6.25
2023-02-13T19:27:55.227Z,6.19
2023-02-13T19:33:05.022Z,6.14
2023-02-13T19:38:16.086Z,6.11
2023-02-13T19:43:25.901Z,6.05
2023-02-13T19:48:36.063Z,5.99
2023-02-13T19:53:46.245Z,5.92
2023-02-13T19:58:56.202Z,5.87
2023-02-13T20:04:06.106Z,5.82
2023-02-13T20:09:16.875Z,5.77
2023-02-13T20:14:26.532Z,5.74
2023-02-13T20:19:36.263Z,5.75
2023-02-13T20:24:47.476Z,5.69
2023-02-13T20:30:06.324Z,5.66
2023-02-13T20:35:17.587Z,5.63
2023-02-13T20:40:27.527Z,5.59
2023-02-13T20:45:37.510Z,5.55
2023-02-13T20:50:47.117Z,5.51
2023-02-13T20:56:02.507Z,5.50
2023-02-13T21:01:20.536Z,5.50
2023-02-13T21:06:32.547Z,5.45
2023-02-13T21:11:45.191Z,5.41
2023-02-13T21:16:54.902Z,5.38
2023-02-13T21:22:12.655Z,5.32
2023-02-13T21:27:22.665Z,5.23
2023-02-13T21:32:32.403Z,5.18
2023-02-13T21:37:42.160Z,5.09
2023-02-13T21:42:55.009Z,5.02
2023-02-13T21:48:04.824Z,4.94
2023-02-13T21:53:14.501Z,4.85
2023-02-13T21:58:24.243Z,4.77
2023-02-13T22:03:33.945Z,4.68
2023-02-13T22:08:44.284Z,4.61
2023-02-13T22:13:57.956Z,4.51
2023-02-13T22:19:09.093Z,4.43
2023-02-13T22:24:19.003Z,4.34
2023-02-13T22:29:28.769Z,4.26
2023-02-13T22:34:38.919Z,4.21
2023-02-13T22:39:48.829Z,4.14
2023-02-13T22:44:58.681Z,4.07
2023-02-13T22:50:10.509Z,4.00
2023-02-13T22:55:20.541Z,3.90
2023-02-13T23:00:30.764Z,3.76
2023-02-13T23:05:43.808Z,3.63
2023-02-13T23:11:07.441Z,3.51
2023-02-13T23:16:19.220Z,3.42
2023-02-13T23:21:29.779Z,3.38
2023-02-13T23:26:39.600Z,3.33
2023-02-13T23:31:49.824Z,3.27
2023-02-13T23:37:00.423Z,3.19
2023-02-13T23:42:10.140Z,3.13
2023-02-13T23:47:19.972Z,3.08
2023-02-13T23:52:29.993Z,3.06
2023-02-13T23:57:40.083Z,3.01
